<?xml version="1.0" encoding="UTF-8" standalone="no" ?>
<gpx xmlns="http://www.topografix.com/GPX/1/1" xmlns:xsi="http://www.w3.org/2001/XMLSchema-instance" xsi:schemaLocation="http://www.topografix.com/GPX/1/1 http://www.topografix.com/GPX/1/1/gpx.xsd" version="1.1" creator="VisuGPX - https://www.visugpx.com">
  <metadata>
    <name>Rando LN</name>
  </metadata>
  <trk>
    <name><![CDATA[Pellegrue]]></name>
    <trkseg>
      <trkpt lat="44.75411" lon="-0.05389">
        <ele>78.6</ele>
      </trkpt>
      <trkpt lat="44.75411" lon="-0.05389">
        <ele>78.6</ele>
      </trkpt>
      <trkpt lat="44.75411" lon="-0.05389">
        <ele>78.6</ele>
      </trkpt>
      <trkpt lat="44.75411" lon="-0.05389">
        <ele>78.6</ele>
      </trkpt>
      <trkpt lat="44.75411" lon="-0.05389">
        <ele>78.6</ele>
      </trkpt>
      <trkpt lat="44.75411" lon="-0.05389">
        <ele>78.6</ele>
      </trkpt>
      <trkpt lat="44.75411" lon="-0.05389">
        <ele>78.6</ele>
      </trkpt>
      <trkpt lat="44.75411" lon="-0.05389">
        <ele>78.6</ele>
      </trkpt>
      <trkpt lat="44.75411" lon="-0.05389">
        <ele>78.6</ele>
      </trkpt>
      <trkpt lat="44.75411" lon="-0.05389">
        <ele>78.6</ele>
      </trkpt>
      <trkpt lat="44.75383" lon="-0.05347">
        <ele>76.9</ele>
      </trkpt>
      <trkpt lat="44.75093" lon="-0.05558">
        <ele>36.108</ele>
        <time>2017-03-28T18:37:18Z</time>
      </trkpt>
      <trkpt lat="44.75075" lon="-0.05528">
        <ele>35.344</ele>
        <time>2017-03-28T18:37:38Z</time>
      </trkpt>
      <trkpt lat="44.75033" lon="-0.05363">
        <ele>32.279</ele>
        <time>2017-03-28T18:37:58Z</time>
      </trkpt>
      <trkpt lat="44.75065" lon="-0.05225">
        <ele>33.799</ele>
        <time>2017-03-28T18:38:18Z</time>
      </trkpt>
      <trkpt lat="44.74997" lon="-0.04938">
        <ele>35.231</ele>
        <time>2017-03-28T18:38:38Z</time>
      </trkpt>
      <trkpt lat="44.75012" lon="-0.04865">
        <ele>35.533</ele>
        <time>2017-03-28T18:38:58Z</time>
      </trkpt>
      <trkpt lat="44.75114" lon="-0.0477">
        <ele>36.014</ele>
        <time>2017-03-28T18:39:18Z</time>
      </trkpt>
      <trkpt lat="44.75139" lon="-0.04727">
        <ele>36.08</ele>
        <time>2017-03-28T18:39:38Z</time>
      </trkpt>
      <trkpt lat="44.75203" lon="-0.04657">
        <ele>39.232</ele>
        <time>2017-03-28T18:39:58Z</time>
      </trkpt>
      <trkpt lat="44.75233" lon="-0.04597">
        <ele>39.954</ele>
        <time>2017-03-28T18:40:18Z</time>
      </trkpt>
      <trkpt lat="44.75233" lon="-0.04328">
        <ele>37.656</ele>
        <time>2017-03-28T18:40:38Z</time>
      </trkpt>
      <trkpt lat="44.75213" lon="-0.04193">
        <ele>40.011</ele>
        <time>2017-03-28T18:40:58Z</time>
      </trkpt>
      <trkpt lat="44.75186" lon="-0.04041">
        <ele>41.108</ele>
        <time>2017-03-28T18:41:18Z</time>
      </trkpt>
      <trkpt lat="44.75216" lon="-0.0403">
        <ele>42.651</ele>
        <time>2017-03-28T18:41:38Z</time>
      </trkpt>
      <trkpt lat="44.75233" lon="-0.03991">
        <ele>44.466</ele>
        <time>2017-03-28T18:41:58Z</time>
      </trkpt>
      <trkpt lat="44.75292" lon="-0.03899">
        <ele>46.466</ele>
        <time>2017-03-28T18:42:18Z</time>
      </trkpt>
      <trkpt lat="44.75334" lon="-0.03785">
        <ele>48.728</ele>
        <time>2017-03-28T18:42:38Z</time>
      </trkpt>
      <trkpt lat="44.75361" lon="-0.03659">
        <ele>50.74</ele>
        <time>2017-03-28T18:42:58Z</time>
      </trkpt>
      <trkpt lat="44.75395" lon="-0.03491">
        <ele>48.741</ele>
        <time>2017-03-28T18:43:18Z</time>
      </trkpt>
      <trkpt lat="44.75399" lon="-0.03388">
        <ele>45.087</ele>
        <time>2017-03-28T18:43:38Z</time>
      </trkpt>
      <trkpt lat="44.75387" lon="-0.03182">
        <ele>49.629</ele>
        <time>2017-03-28T18:43:58Z</time>
      </trkpt>
      <trkpt lat="44.7536" lon="-0.03135">
        <ele>49.126</ele>
        <time>2017-03-28T18:44:18Z</time>
      </trkpt>
      <trkpt lat="44.75366" lon="-0.03022">
        <ele>50.847</ele>
        <time>2017-03-28T18:44:38Z</time>
      </trkpt>
      <trkpt lat="44.75337" lon="-0.03039">
        <ele>54.111</ele>
        <time>2017-03-28T18:44:58Z</time>
      </trkpt>
      <trkpt lat="44.75305" lon="-0.03071">
        <ele>58.508</ele>
        <time>2017-03-28T18:45:18Z</time>
      </trkpt>
      <trkpt lat="44.75267" lon="-0.03049">
        <ele>68.698</ele>
        <time>2017-03-28T18:45:38Z</time>
      </trkpt>
      <trkpt lat="44.75171" lon="-0.03037">
        <ele>75.173</ele>
        <time>2017-03-28T18:45:58Z</time>
      </trkpt>
      <trkpt lat="44.75088" lon="-0.02974">
        <ele>79.853</ele>
        <time>2017-03-28T18:46:18Z</time>
      </trkpt>
      <trkpt lat="44.74962" lon="-0.03037">
        <ele>87.065</ele>
        <time>2017-03-28T18:46:38Z</time>
      </trkpt>
      <trkpt lat="44.74822" lon="-0.02998">
        <ele>85.657</ele>
        <time>2017-03-28T18:46:58Z</time>
      </trkpt>
      <trkpt lat="44.74677" lon="-0.03052">
        <ele>81.128</ele>
        <time>2017-03-28T18:47:18Z</time>
      </trkpt>
      <trkpt lat="44.74585" lon="-0.03034">
        <ele>80.824</ele>
        <time>2017-03-28T18:47:38Z</time>
      </trkpt>
      <trkpt lat="44.74506" lon="-0.02994">
        <ele>77.946</ele>
        <time>2017-03-28T18:47:58Z</time>
      </trkpt>
      <trkpt lat="44.74492" lon="-0.02972">
        <ele>78.513</ele>
        <time>2017-03-28T18:48:18Z</time>
      </trkpt>
      <trkpt lat="44.74492" lon="-0.02972">
        <ele>78.513</ele>
        <time>2017-03-28T18:48:18Z</time>
      </trkpt>
      <trkpt lat="44.74492" lon="-0.02972">
        <ele>78.513</ele>
        <time>2017-03-28T18:48:18Z</time>
      </trkpt>
      <trkpt lat="44.74492" lon="-0.02972">
        <ele>78.513</ele>
        <time>2017-03-28T18:48:18Z</time>
      </trkpt>
      <trkpt lat="44.74492" lon="-0.02972">
        <ele>78.513</ele>
        <time>2017-03-28T18:48:18Z</time>
      </trkpt>
      <trkpt lat="44.7447" lon="-0.03007">
        <ele>76.143</ele>
        <time>2017-03-28T18:48:38Z</time>
      </trkpt>
      <trkpt lat="44.74319" lon="-0.03092">
        <ele>79.507</ele>
        <time>2017-03-28T18:48:58Z</time>
      </trkpt>
      <trkpt lat="44.74204" lon="-0.03116">
        <ele>88.308</ele>
        <time>2017-03-28T18:49:18Z</time>
      </trkpt>
      <trkpt lat="44.73839" lon="-0.02431">
        <ele>98.377</ele>
        <time>2017-03-28T18:49:38Z</time>
      </trkpt>
      <trkpt lat="44.73866" lon="-0.02397">
        <ele>97.942</ele>
        <time>2017-03-28T18:49:58Z</time>
      </trkpt>
      <trkpt lat="44.7393" lon="-0.02247">
        <ele>100.682</ele>
        <time>2017-03-28T18:50:18Z</time>
      </trkpt>
      <trkpt lat="44.7395" lon="-0.02084">
        <ele>99.864</ele>
        <time>2017-03-28T18:50:38Z</time>
      </trkpt>
      <trkpt lat="44.73983" lon="-0.0197">
        <ele>100.016</ele>
        <time>2017-03-28T18:50:58Z</time>
      </trkpt>
      <trkpt lat="44.74131" lon="-0.01863">
        <ele>104.347</ele>
        <time>2017-03-28T18:51:18Z</time>
      </trkpt>
      <trkpt lat="44.74233" lon="-0.01822">
        <ele>104.223</ele>
        <time>2017-03-28T18:51:38Z</time>
      </trkpt>
      <trkpt lat="44.74381" lon="-0.01453">
        <ele>94.525</ele>
        <time>2017-03-28T18:51:58Z</time>
      </trkpt>
      <trkpt lat="44.74264" lon="-0.01331">
        <ele>92.042</ele>
        <time>2017-03-28T18:52:18Z</time>
      </trkpt>
      <trkpt lat="44.74207" lon="-0.01208">
        <ele>91.522</ele>
        <time>2017-03-28T18:52:38Z</time>
      </trkpt>
      <trkpt lat="44.74143" lon="-0.01142">
        <ele>86.514</ele>
        <time>2017-03-28T18:52:58Z</time>
      </trkpt>
      <trkpt lat="44.74235" lon="-0.00908">
        <ele>98.308</ele>
        <time>2017-03-28T18:53:18Z</time>
      </trkpt>
      <trkpt lat="44.74273" lon="-0.00779">
        <ele>96.81</ele>
        <time>2017-03-28T18:53:38Z</time>
      </trkpt>
      <trkpt lat="44.74346" lon="-0.00296">
        <ele>95.725</ele>
        <time>2017-03-28T18:53:58Z</time>
      </trkpt>
      <trkpt lat="44.74579" lon="-0.0029">
        <ele>100.145</ele>
        <time>2017-03-28T18:54:18Z</time>
      </trkpt>
      <trkpt lat="44.74541" lon="-0.0014">
        <ele>92.177</ele>
        <time>2017-03-28T18:54:38Z</time>
      </trkpt>
      <trkpt lat="44.74508" lon="0.00047">
        <ele>88.049</ele>
        <time>2017-03-28T18:54:58Z</time>
      </trkpt>
      <trkpt lat="44.74687" lon="0.00079">
        <ele>91.68</ele>
        <time>2017-03-28T18:55:18Z</time>
      </trkpt>
      <trkpt lat="44.74899" lon="0.00047">
        <ele>99.476</ele>
        <time>2017-03-28T18:55:38Z</time>
      </trkpt>
      <trkpt lat="44.75137" lon="-0.00118">
        <ele>102.128</ele>
        <time>2017-03-28T18:55:58Z</time>
      </trkpt>
      <trkpt lat="44.7516" lon="-0.00075">
        <ele>101.523</ele>
        <time>2017-03-28T18:56:18Z</time>
      </trkpt>
      <trkpt lat="44.75274" lon="0.00249">
        <ele>101.883</ele>
        <time>2017-03-28T18:56:38Z</time>
      </trkpt>
      <trkpt lat="44.75358" lon="0.00313">
        <ele>104.411</ele>
        <time>2017-03-28T18:56:58Z</time>
      </trkpt>
      <trkpt lat="44.75364" lon="0.00356">
        <ele>104.908</ele>
        <time>2017-03-28T18:57:18Z</time>
      </trkpt>
      <trkpt lat="44.75332" lon="0.00594">
        <ele>106.668</ele>
        <time>2017-03-28T18:57:38Z</time>
      </trkpt>
      <trkpt lat="44.75276" lon="0.00723">
        <ele>108.213</ele>
        <time>2017-03-28T18:57:58Z</time>
      </trkpt>
      <trkpt lat="44.7527" lon="0.0077">
        <ele>110.173</ele>
        <time>2017-03-28T18:58:18Z</time>
      </trkpt>
      <trkpt lat="44.75294" lon="0.00991">
        <ele>113.995</ele>
        <time>2017-03-28T18:58:38Z</time>
      </trkpt>
      <trkpt lat="44.75349" lon="0.00978">
        <ele>114.677</ele>
        <time>2017-03-28T18:58:58Z</time>
      </trkpt>
      <trkpt lat="44.76228" lon="0.00965">
        <ele>102.688</ele>
        <time>2017-03-28T18:59:18Z</time>
      </trkpt>
      <trkpt lat="44.76281" lon="0.00953">
        <ele>101.474</ele>
        <time>2017-03-28T18:59:38Z</time>
      </trkpt>
      <trkpt lat="44.76249" lon="0.01195">
        <ele>106.066</ele>
        <time>2017-03-28T18:59:58Z</time>
      </trkpt>
      <trkpt lat="44.76114" lon="0.01689">
        <ele>90.276</ele>
        <time>2017-03-28T19:00:18Z</time>
      </trkpt>
      <trkpt lat="44.76074" lon="0.02549">
        <ele>110.79</ele>
        <time>2017-03-28T19:00:38Z</time>
      </trkpt>
      <trkpt lat="44.76165" lon="0.03169">
        <ele>112.019</ele>
        <time>2020-11-24T23:56:00Z</time>
      </trkpt>
      <trkpt lat="44.76189" lon="0.03221">
        <ele>112.808</ele>
        <time>2020-11-24T23:56:20Z</time>
      </trkpt>
      <trkpt lat="44.76298" lon="0.03351">
        <ele>113.383</ele>
        <time>2020-11-24T23:56:40Z</time>
      </trkpt>
      <trkpt lat="44.76317" lon="0.03467">
        <ele>109.348</ele>
        <time>2020-11-24T23:57:00Z</time>
      </trkpt>
      <trkpt lat="44.76387" lon="0.03558">
        <ele>107.918</ele>
        <time>2020-11-24T23:57:20Z</time>
      </trkpt>
      <trkpt lat="44.76397" lon="0.03622">
        <ele>107.63</ele>
        <time>2020-11-24T23:57:40Z</time>
      </trkpt>
      <trkpt lat="44.76341" lon="0.03645">
        <ele>104.322</ele>
        <time>2020-11-24T23:58:00Z</time>
      </trkpt>
      <trkpt lat="44.76306" lon="0.03696">
        <ele>102.873</ele>
        <time>2020-11-24T23:58:20Z</time>
      </trkpt>
      <trkpt lat="44.76287" lon="0.03753">
        <ele>100.559</ele>
        <time>2020-11-24T23:58:40Z</time>
      </trkpt>
      <trkpt lat="44.76305" lon="0.03817">
        <ele>97.621</ele>
        <time>2020-11-24T23:59:00Z</time>
      </trkpt>
      <trkpt lat="44.76317" lon="0.03975">
        <ele>87.368</ele>
        <time>2020-11-24T23:59:20Z</time>
      </trkpt>
      <trkpt lat="44.76263" lon="0.04214">
        <ele>81.042</ele>
        <time>2020-11-24T23:59:40Z</time>
      </trkpt>
      <trkpt lat="44.76175" lon="0.04362">
        <ele>75.226</ele>
        <time>2020-11-25T00:00:00Z</time>
      </trkpt>
      <trkpt lat="44.76143" lon="0.04508">
        <ele>74.508</ele>
        <time>2017-03-28T19:12:18Z</time>
      </trkpt>
      <trkpt lat="44.76271" lon="0.04568">
        <ele>90.472</ele>
        <time>2017-03-28T19:12:38Z</time>
      </trkpt>
      <trkpt lat="44.76322" lon="0.04521">
        <ele>92.797</ele>
        <time>2017-03-28T19:12:58Z</time>
      </trkpt>
      <trkpt lat="44.76374" lon="0.04596">
        <ele>88.927</ele>
        <time>2017-03-28T19:13:18Z</time>
      </trkpt>
      <trkpt lat="44.76455" lon="0.0469">
        <ele>80.349</ele>
        <time>2017-03-28T19:13:38Z</time>
      </trkpt>
      <trkpt lat="44.76481" lon="0.04733">
        <ele>77.871</ele>
        <time>2017-03-28T19:13:58Z</time>
      </trkpt>
      <trkpt lat="44.7649" lon="0.04813">
        <ele>73.462</ele>
        <time>2017-03-28T19:14:18Z</time>
      </trkpt>
      <trkpt lat="44.76464" lon="0.04884">
        <ele>70.268</ele>
        <time>2017-03-28T19:14:38Z</time>
      </trkpt>
      <trkpt lat="44.76438" lon="0.05004">
        <ele>65.99</ele>
        <time>2017-03-28T19:14:58Z</time>
      </trkpt>
      <trkpt lat="44.76402" lon="0.05055">
        <ele>58.665</ele>
        <time>2017-03-28T19:15:18Z</time>
      </trkpt>
      <trkpt lat="44.76358" lon="0.05047">
        <ele>55.268</ele>
        <time>2017-03-28T19:15:38Z</time>
      </trkpt>
      <trkpt lat="44.76295" lon="0.04982">
        <ele>51.314</ele>
        <time>2017-03-28T19:15:58Z</time>
      </trkpt>
      <trkpt lat="44.76237" lon="0.04987">
        <ele>50.708</ele>
        <time>2017-03-28T19:16:18Z</time>
      </trkpt>
      <trkpt lat="44.76194" lon="0.05023">
        <ele>48.552</ele>
        <time>2017-03-28T19:16:38Z</time>
      </trkpt>
      <trkpt lat="44.76339" lon="0.05263">
        <ele>41.717</ele>
        <time>2017-03-28T19:16:58Z</time>
      </trkpt>
      <trkpt lat="44.76391" lon="0.05433">
        <ele>41.067</ele>
        <time>2017-03-28T19:17:18Z</time>
      </trkpt>
      <trkpt lat="44.76198" lon="0.0565">
        <ele>37.579</ele>
        <time>2017-03-28T19:17:38Z</time>
      </trkpt>
      <trkpt lat="44.76175" lon="0.05637">
        <ele>37.881</ele>
        <time>2017-03-28T19:17:58Z</time>
      </trkpt>
      <trkpt lat="44.76146" lon="0.05598">
        <ele>41.792</ele>
        <time>2017-03-28T19:18:18Z</time>
      </trkpt>
      <trkpt lat="44.76022" lon="0.05493">
        <ele>62.938</ele>
        <time>2017-03-28T19:18:38Z</time>
      </trkpt>
      <trkpt lat="44.75919" lon="0.05504">
        <ele>67.57</ele>
        <time>2017-03-28T19:18:58Z</time>
      </trkpt>
      <trkpt lat="44.75876" lon="0.05585">
        <ele>72.364</ele>
        <time>2017-03-28T19:19:18Z</time>
      </trkpt>
      <trkpt lat="44.7583" lon="0.0562">
        <ele>73.706</ele>
        <time>2017-03-28T19:19:38Z</time>
      </trkpt>
      <trkpt lat="44.7576" lon="0.05705">
        <ele>78.816</ele>
        <time>2017-03-28T19:19:58Z</time>
      </trkpt>
      <trkpt lat="44.75701" lon="0.05718">
        <ele>78.808</ele>
        <time>2017-03-28T19:20:18Z</time>
      </trkpt>
      <trkpt lat="44.75663" lon="0.0571">
        <ele>80.372</ele>
        <time>2017-03-28T19:20:38Z</time>
      </trkpt>
      <trkpt lat="44.75602" lon="0.05746">
        <ele>86.367</ele>
        <time>2017-03-28T19:20:58Z</time>
      </trkpt>
      <trkpt lat="44.75576" lon="0.05808">
        <ele>88.367</ele>
        <time>2017-03-28T19:21:18Z</time>
      </trkpt>
      <trkpt lat="44.75206" lon="0.05989">
        <ele>96.059</ele>
        <time>2017-03-28T19:21:38Z</time>
      </trkpt>
      <trkpt lat="44.75172" lon="0.06038">
        <ele>93.481</ele>
        <time>2017-03-28T19:21:58Z</time>
      </trkpt>
      <trkpt lat="44.75081" lon="0.06298">
        <ele>95.732</ele>
        <time>2017-03-28T19:22:18Z</time>
      </trkpt>
      <trkpt lat="44.74887" lon="0.06493">
        <ele>93.628</ele>
        <time>2017-03-28T19:22:38Z</time>
      </trkpt>
      <trkpt lat="44.74873" lon="0.06553">
        <ele>94.35</ele>
        <time>2017-03-28T19:22:58Z</time>
      </trkpt>
      <trkpt lat="44.74904" lon="0.06637">
        <ele>91.957</ele>
        <time>2017-03-28T19:23:18Z</time>
      </trkpt>
      <trkpt lat="44.74898" lon="0.06692">
        <ele>88</ele>
        <time>2017-03-28T19:23:38Z</time>
      </trkpt>
      <trkpt lat="44.74697" lon="0.06967">
        <ele>88.62</ele>
        <time>2017-03-28T19:23:58Z</time>
      </trkpt>
      <trkpt lat="44.74587" lon="0.07038">
        <ele>83.308</ele>
        <time>2017-03-28T19:24:18Z</time>
      </trkpt>
      <trkpt lat="44.74532" lon="0.07306">
        <ele>77.371</ele>
        <time>2017-03-28T19:24:38Z</time>
      </trkpt>
      <trkpt lat="44.74473" lon="0.07317">
        <ele>78.276</ele>
        <time>2017-03-28T19:24:58Z</time>
      </trkpt>
      <trkpt lat="44.74416" lon="0.07377">
        <ele>88.046</ele>
        <time>2017-03-28T19:25:18Z</time>
      </trkpt>
      <trkpt lat="44.74389" lon="0.07465">
        <ele>96.098</ele>
        <time>2017-03-28T19:25:38Z</time>
      </trkpt>
      <trkpt lat="44.74378" lon="0.07544">
        <ele>99.57</ele>
        <time>2017-03-28T19:25:58Z</time>
      </trkpt>
    </trkseg>
  </trk>
</gpx>